Time;durP1;ratioP1;P1;durP2;ratioP2;P2;SDS_P1;SDS_P2;PMS_P1;PMS_P2;Temp;Humidity;BMP_temperature;BMP_pressure;BME280_temperature;BME280_humidity;BME280_pressure;Samples;Min_cycle;Max_cycle;Signal;HPM_P1;HPM_P2
2024/03/10 00:00:14;;;;;;;8.47;5.93;;;;;;;7.66;70.65;97093.69;4875658;29;42639;-81
2024/03/10 00:02:44;;;;;;;8.90;6.47;;;;;;;7.62;70.07;97098.34;4861968;29;39988;-75
2024/03/10 00:05:13;;;;;;;10.13;6.13;;;;;;;7.64;69.90;97106.97;4876407;29;42343;-77
2024/03/10 00:07:41;;;;;;;9.43;6.57;;;;;;;7.62;71.02;97108.88;4877565;29;43742;-76
2024/03/10 00:10:10;;;;;;;9.83;6.90;;;;;;;7.58;71.22;97108.28;4876044;29;41072;-79
2024/03/10 00:12:37;;;;;;;8.50;6.30;;;;;;;7.60;71.61;97116.06;4878136;29;41157;-80
2024/03/10 00:15:06;;;;;;;9.80;7.13;;;;;;;7.58;71.10;97107.44;4881130;29;42715;-74
2024/03/10 00:17:35;;;;;;;7.90;6.03;;;;;;;7.56;71.03;97099.66;4877571;29;42679;-78
2024/03/10 00:20:05;;;;;;;9.43;6.67;;;;;;;7.44;70.96;97089.25;4876078;29;41250;-78
2024/03/10 00:22:33;;;;;;;12.63;7.73;;;;;;;7.51;70.73;97107.09;4877350;29;39757;-74
2024/03/10 00:25:00;;;;;;;11.57;7.40;;;;;;;7.50;71.13;97105.41;4876250;29;41650;-79
2024/03/10 00:27:28;;;;;;;10.70;7.90;;;;;;;7.49;70.98;97111.66;4860300;29;43899;-77
2024/03/10 00:29:55;;;;;;;9.57;7.03;;;;;;;7.48;70.40;97123.13;4876289;29;42040;-80
2024/03/10 00:32:24;;;;;;;10.80;6.77;;;;;;;7.47;70.05;97121.44;4861289;29;38910;-77
2024/03/10 00:34:52;;;;;;;9.23;6.97;;;;;;;7.47;69.59;97125.88;4876775;29;42534;-79
2024/03/10 00:37:21;;;;;;;8.00;6.70;;;;;;;7.48;71.82;97117.03;4878008;29;42918;-76
2024/03/10 00:39:49;;;;;;;10.47;7.77;;;;;;;7.49;71.99;97114.28;4876759;29;41004;-78
2024/03/10 00:42:17;;;;;;;8.97;7.17;;;;;;;7.48;72.85;97117.88;4876618;29;39245;-75
2024/03/10 00:44:44;;;;;;;11.43;7.80;;;;;;;7.49;73.70;97114.28;4878010;29;41726;-75
2024/03/10 00:47:12;;;;;;;10.43;7.10;;;;;;;7.42;73.62;97102.53;4877842;29;43054;-75
2024/03/10 00:49:39;;;;;;;11.83;7.57;;;;;;;7.48;73.78;97102.06;4860908;29;44519;-75
2024/03/10 00:52:09;;;;;;;10.10;6.97;;;;;;;7.39;74.00;97092.25;4876725;29;40039;-78
2024/03/10 00:54:38;;;;;;;9.20;7.30;;;;;;;7.50;74.11;97110.69;4876425;29;41610;-75
2024/03/10 00:57:06;;;;;;;10.20;6.97;;;;;;;7.49;74.39;97109.00;4860516;29;42946;-76
2024/03/10 00:59:34;;;;;;;12.37;8.00;;;;;;;7.49;75.63;97109.00;4875560;29;43218;-78
2024/03/10 01:02:01;;;;;;;11.33;8.07;;;;;;;7.49;75.47;97102.91;4859620;29;38826;-79
2024/03/10 01:04:29;;;;;;;10.07;7.80;;;;;;;7.48;75.48;97091.53;4876919;29;42585;-77
2024/03/10 01:06:56;;;;;;;12.13;8.27;;;;;;;7.45;76.43;97085.66;4876223;29;43738;-74
2024/03/10 01:09:24;;;;;;;11.80;8.20;;;;;;;7.51;76.75;97091.28;4862897;29;41062;-78
2024/03/10 01:11:53;;;;;;;13.67;8.13;;;;;;;7.52;75.65;97100.88;4878615;29;40925;-76
2024/03/10 01:14:20;;;;;;;10.90;7.70;;;;;;;7.52;75.37;97095.63;4878613;29;41761;-76
2024/03/10 01:16:48;;;;;;;10.80;7.10;;;;;;;7.53;75.09;97094.66;4879092;29;43132;-78
2024/03/10 01:19:15;;;;;;;10.33;7.27;;;;;;;7.51;75.96;97091.28;4878767;29;41631;-75
2024/03/10 01:21:46;;;;;;;10.23;7.57;;;;;;;7.51;75.48;97090.47;4878120;29;39157;-78
2024/03/10 01:24:14;;;;;;;12.10;8.10;;;;;;;7.50;75.06;97094.88;4862614;29;42634;-78
2024/03/10 01:26:41;;;;;;;10.73;7.70;;;;;;;7.52;75.71;97086.88;4878142;29;41731;-75
2024/03/10 01:29:10;;;;;;;11.43;8.00;;;;;;;7.49;74.93;97080.03;4862855;29;42068;-76
2024/03/10 01:31:37;;;;;;;11.00;7.60;;;;;;;7.47;75.03;97084.59;4879528;29;38852;-79
2024/03/10 01:34:05;;;;;;;10.73;8.37;;;;;;;7.47;76.23;97076.69;4879523;29;41944;-77
2024/03/10 01:36:32;;;;;;;11.53;8.17;;;;;;;7.46;77.08;97067.09;4879462;29;42726;-79
2024/03/10 01:39:00;;;;;;;11.87;9.10;;;;;;;7.44;78.03;97074.28;4879393;29;42360;-75
2024/03/10 01:41:28;;;;;;;12.10;8.97;;;;;;;7.42;78.18;97060.38;4880555;29;40143;-74
2024/03/10 01:43:55;;;;;;;13.10;8.80;;;;;;;7.42;78.64;97060.38;4863812;29;43104;-78
2024/03/10 01:46:27;;;;;;;11.23;9.07;;;;;;;7.44;78.09;97060.28;4878821;29;41413;-76
2024/03/10 01:48:55;;;;;;;10.87;8.37;;;;;;;7.43;78.08;97061.22;4877875;29;42999;-78
2024/03/10 01:51:23;;;;;;;11.97;8.10;;;;;;;7.44;76.98;97066.38;4880436;29;39982;-74
2024/03/10 01:53:52;;;;;;;12.37;8.50;;;;;;;7.37;76.47;97052.03;4880004;29;41771;-78
2024/03/10 01:56:20;;;;;;;11.53;7.80;;;;;;;7.45;76.79;97065.44;4863087;29;43180;-76
2024/03/10 01:58:48;;;;;;;13.70;8.40;;;;;;;7.44;76.89;97058.47;4875855;29;43274;-75
2024/03/10 02:01:16;;;;;;;12.43;8.37;;;;;;;7.43;76.61;97067.34;4861732;29;40184;-80
2024/03/10 02:03:45;;;;;;;13.93;8.97;;;;;;;7.42;77.23;97052.50;4862584;29;40682;-75
2024/03/10 02:06:13;;;;;;;11.13;8.37;;;;;;;7.42;77.38;97049.88;4862292;29;42776;-75
2024/03/10 02:08:42;;;;;;;12.67;9.00;;;;;;;7.43;77.46;97050.69;4862607;29;41172;-79
2024/03/10 02:11:10;;;;;;;11.27;7.83;;;;;;;7.43;76.68;97046.28;4878894;29;39839;-78
2024/03/10 02:13:38;;;;;;;12.23;8.73;;;;;;;7.44;75.97;97047.09;4879135;29;42351;-78
2024/03/10 02:16:07;;;;;;;11.80;7.97;;;;;;;7.44;75.67;97047.94;4878921;29;42832;-76
2024/03/10 02:18:35;;;;;;;12.37;8.73;;;;;;;7.44;75.62;97045.31;4876791;29;43244;-76
2024/03/10 02:21:06;;;;;;;10.93;8.33;;;;;;;7.38;74.94;97043.19;4861659;29;39818;-78
2024/03/10 02:23:40;;;;;;;10.47;7.67;;;;;;;7.45;74.77;97059.31;4877569;29;40520;-74
2024/03/10 02:26:10;;;;;;;10.23;7.50;;;;;;;7.44;74.51;97052.38;4862330;29;41333;-78
2024/03/10 02:28:57;;;;;;;11.73;8.30;;;;;;;7.43;74.68;97045.44;4878847;29;41998;-76
2024/03/10 02:47:58;;;;;;;14.43;9.17;;;;;;;7.39;77.78;97015.91;4862610;29;41886;-80
2024/03/10 02:50:26;;;;;;;14.10;9.20;;;;;;;7.42;77.44;97022.69;4877915;29;42345;-79
2024/03/10 02:52:54;;;;;;;14.90;8.87;;;;;;;7.43;76.88;97025.19;4862816;29;38577;-76
2024/03/10 02:55:21;;;;;;;13.27;9.13;;;;;;;7.36;76.78;97008.22;4879344;29;41496;-74
2024/03/10 02:57:50;;;;;;;13.83;8.93;;;;;;;7.45;76.83;97018.03;4877870;29;42322;-77
2024/03/10 03:00:18;;;;;;;11.80;9.00;;;;;;;7.44;78.56;97000.53;4877530;29;42960;-77
2024/03/10 03:02:45;;;;;;;11.57;8.70;;;;;;;7.43;78.28;97004.13;4877286;29;40079;-76
2024/03/10 03:05:17;;;;;;;15.13;10.53;;;;;;;7.41;78.39;97000.81;4876995;29;42834;-79
2024/03/10 03:07:45;;;;;;;14.90;10.13;;;;;;;7.38;77.48;97001.06;4877072;29;43089;-79
2024/03/10 03:10:12;;;;;;;12.30;8.70;;;;;;;7.40;76.41;97014.94;4861043;29;42743;-77
2024/03/10 03:12:40;;;;;;;13.90;8.90;;;;;;;7.33;76.42;97013.72;4877032;29;41086;-74
2024/03/10 03:15:10;;;;;;;13.30;8.73;;;;;;;7.35;76.27;97026.78;4877986;29;41923;-76
2024/03/10 03:17:37;;;;;;;9.80;7.53;;;;;;;7.31;75.74;97023.53;4877045;29;43905;-75
2024/03/10 03:20:13;;;;;;;12.70;9.10;;;;;;;7.27;75.89;97014.22;4878224;29;42505;-78
2024/03/10 03:22:42;;;;;;;11.33;7.90;;;;;;;7.24;75.85;97019.72;4875546;29;40031;-76
2024/03/10 03:25:11;;;;;;;13.73;9.67;;;;;;;7.18;75.70;97028.09;4877746;29;41825;-78
2024/03/10 03:27:39;;;;;;;10.90;8.10;;;;;;;7.13;75.39;97030.25;4861215;29;42504;-76
2024/03/10 03:30:07;;;;;;;12.53;8.67;;;;;;;7.10;75.50;97033.13;4861568;29;41099;-77
2024/03/10 03:32:36;;;;;;;11.93;8.80;;;;;;;7.05;75.84;97022.09;4877819;29;40128;-74
2024/03/10 03:35:04;;;;;;;14.00;8.90;;;;;;;7.03;76.43;97026.66;4877235;29;43055;-75
2024/03/10 03:37:31;;;;;;;12.57;8.50;;;;;;;6.99;76.29;97009.44;4877600;29;42561;-77
2024/03/10 03:39:59;;;;;;;15.47;10.33;;;;;;;6.94;76.34;96998.41;4877622;29;41215;-76
2024/03/10 03:42:27;;;;;;;12.90;9.43;;;;;;;6.95;77.24;96992.19;4862174;29;40344;-75
2024/03/10 03:44:55;;;;;;;14.67;10.13;;;;;;;6.93;77.53;96986.22;4878843;29;42748;-78
2024/03/10 03:47:22;;;;;;;13.33;10.07;;;;;;;6.93;77.88;96980.94;4877290;29;43179;-79
2024/03/10 03:49:51;;;;;;;14.40;9.43;;;;;;;6.91;78.71;96985.53;4877602;29;42899;-79
2024/03/10 03:52:19;;;;;;;16.87;9.97;;;;;;;6.90;78.18;96983.84;4877496;29;39857;-75
2024/03/10 03:54:46;;;;;;;16.90;11.50;;;;;;;6.85;79.79;96969.25;4878688;29;42532;-78
2024/03/10 03:57:14;;;;;;;13.77;9.53;;;;;;;6.85;80.01;96973.66;4877135;29;42423;-76
2024/03/10 03:59:43;;;;;;;13.97;10.53;;;;;;;6.88;80.62;96964.69;4860346;29;41124;-76
2024/03/10 04:02:10;;;;;;;14.37;9.93;;;;;;;6.88;79.78;96965.53;4875883;29;39936;-76
2024/03/10 04:04:38;;;;;;;14.53;10.17;;;;;;;6.89;79.38;96963.75;4877530;29;42750;-80
2024/03/10 04:07:07;;;;;;;15.30;10.20;;;;;;;6.89;79.43;96955.84;4876104;29;43077;-74
2024/03/10 04:09:35;;;;;;;15.40;10.17;;;;;;;6.89;79.15;96961.13;4860336;29;42745;-80
2024/03/10 04:12:02;;;;;;;13.70;9.33;;;;;;;6.88;79.20;96959.44;4876147;29;38911;-78
2024/03/10 04:14:29;;;;;;;15.20;10.40;;;;;;;6.85;79.20;96942.94;4876476;29;41808;-76
2024/03/10 04:16:57;;;;;;;16.23;10.57;;;;;;;6.81;80.56;96933.59;4876116;29;43574;-78
2024/03/10 04:19:24;;;;;;;15.40;10.57;;;;;;;6.77;80.10;96937.44;4877225;29;42972;-77
2024/03/10 04:21:52;;;;;;;15.10;11.10;;;;;;;6.74;79.58;96932.41;4860341;29;38873;-77
2024/03/10 04:24:21;;;;;;;17.50;10.60;;;;;;;6.70;79.32;96944.13;4876843;29;41706;-77
2024/03/10 04:26:49;;;;;;;17.37;10.73;;;;;;;6.66;79.09;96953.22;4860189;29;43663;-78
2024/03/10 04:29:17;;;;;;;16.10;11.07;;;;;;;6.62;81.14;96949.13;4860218;29;41098;-78
2024/03/10 04:31:45;;;;;;;16.27;11.37;;;;;;;6.48;80.24;96926.53;4877115;29;39878;-76
2024/03/10 04:34:12;;;;;;;18.60;10.33;;;;;;;6.57;80.05;96951.28;4861333;29;40715;-78
2024/03/10 04:36:40;;;;;;;13.20;9.50;;;;;;;6.55;79.60;96947.13;4876390;29;43702;-76
2024/03/10 04:39:09;;;;;;;16.60;11.10;;;;;;;6.52;80.21;96937.66;4876963;29;42340;-77
2024/03/10 04:41:38;;;;;;;16.43;11.67;;;;;;;6.48;81.21;96929.16;4877331;29;41114;-76
2024/03/10 04:44:06;;;;;;;16.43;11.67;;;;;;;6.51;81.15;96935.97;4876673;29;42586;-76
2024/03/10 04:46:35;;;;;;;16.43;12.10;;;;;;;6.32;81.04;96899.75;4876593;29;42787;-77
2024/03/10 04:49:03;;;;;;;16.73;11.77;;;;;;;6.52;81.64;96932.41;4876290;29;42572;-76
2024/03/10 04:51:32;;;;;;;17.77;11.10;;;;;;;6.52;81.48;96921.03;4876451;29;41012;-77
2024/03/10 04:53:59;;;;;;;17.43;11.87;;;;;;;6.51;82.63;96911.47;4876708;29;41573;-80
2024/03/10 04:56:27;;;;;;;16.80;11.53;;;;;;;6.52;82.07;96911.38;4858420;29;44947;-79
2024/03/10 04:58:55;;;;;;;17.07;11.93;;;;;;;6.53;82.04;96904.31;4859911;29;41148;-76
2024/03/10 05:01:23;;;;;;;17.27;11.87;;;;;;;6.48;82.32;96888.88;4876717;29;41252;-76
2024/03/10 05:03:51;;;;;;;16.87;12.07;;;;;;;6.52;82.13;96890.34;4875342;29;40949;-76
2024/03/10 05:06:18;;;;;;;17.57;11.97;;;;;;;6.52;83.75;96882.44;4859427;29;41433;-78
2024/03/10 05:08:47;;;;;;;21.33;13.30;;;;;;;6.53;83.77;96884.13;4859460;29;43552;-79
2024/03/10 05:11:15;;;;;;;19.93;13.23;;;;;;;6.52;83.37;96885.06;4876309;29;40121;-78
2024/03/10 05:13:43;;;;;;;18.07;12.50;;;;;;;6.39;83.24;96860.69;4859497;29;43257;-76
2024/03/10 05:16:12;;;;;;;18.73;12.10;;;;;;;6.52;82.96;96890.34;4874951;29;44085;-78
2024/03/10 05:18:41;;;;;;;18.77;12.73;;;;;;;6.51;83.18;96880.78;4876413;29;42940;-78
2024/03/10 05:21:08;;;;;;;17.17;12.37;;;;;;;6.51;83.02;96857.09;4876242;29;40084;-78
2024/03/10 05:23:37;;;;;;;18.23;12.40;;;;;;;6.48;84.09;96841.56;4875176;29;41763;-76
2024/03/10 05:26:05;;;;;;;19.13;13.10;;;;;;;6.46;84.26;96838.22;4876152;29;43589;-79
2024/03/10 05:28:33;;;;;;;21.43;13.83;;;;;;;6.45;84.95;96852.31;4875129;29;42033;-75
2024/03/10 05:31:00;;;;;;;21.63;13.93;;;;;;;6.44;85.89;96858.53;4875812;29;39926;-78
2024/03/10 05:33:30;;;;;;;22.13;14.37;;;;;;;6.48;85.51;96875.75;4861272;29;40435;-74
2024/03/10 05:35:58;;;;;;;20.63;13.53;;;;;;;6.50;85.75;96897.50;4860856;29;43279;-75
2024/03/10 05:38:25;;;;;;;20.07;13.83;;;;;;;6.52;84.35;96903.47;4877518;29;43251;-74
2024/03/10 05:40:53;;;;;;;19.17;12.80;;;;;;;6.47;84.04;96897.72;4877831;29;41361;-75
2024/03/10 05:43:21;;;;;;;18.60;12.27;;;;;;;6.54;83.68;96925.25;4876613;29;41573;-78
2024/03/10 05:45:48;;;;;;;18.30;12.23;;;;;;;6.53;83.28;96910.41;4876729;29;42789;-76
2024/03/10 05:48:18;;;;;;;18.20;12.60;;;;;;;6.53;82.73;96915.69;4876501;29;42487;-75
2024/03/10 05:50:48;;;;;;;16.73;12.17;;;;;;;6.41;82.38;96906.09;4877160;29;40040;-79
2024/03/10 05:53:17;;;;;;;19.87;12.50;;;;;;;6.52;82.31;96926.31;4876960;29;42518;-79
2024/03/10 05:55:46;;;;;;;16.33;11.47;;;;;;;6.53;81.70;96930.63;4878328;29;43037;-76
2024/03/10 05:58:14;;;;;;;15.77;11.03;;;;;;;6.54;81.44;96935.75;4876921;29;43515;-74
2024/03/10 06:00:42;;;;;;;16.67;11.87;;;;;;;6.54;81.44;96934.91;4878932;29;41032;-77
2024/03/10 06:03:09;;;;;;;17.47;11.87;;;;;;;6.55;80.95;96932.19;4877565;29;40783;-77
2024/03/10 06:05:36;;;;;;;16.07;11.80;;;;;;;6.57;80.68;96932.88;4877602;29;41999;-79
2024/03/10 06:08:08;;;;;;;16.60;12.10;;;;;;;6.59;81.24;96930.13;4877563;29;43416;-76
2024/03/10 06:10:35;;;;;;;20.63;13.33;;;;;;;6.60;81.13;96932.63;4877593;29;38565;-78
2024/03/10 06:13:03;;;;;;;18.23;12.23;;;;;;;6.63;80.49;96928.94;4877263;29;42147;-77
2024/03/10 06:15:31;;;;;;;15.97;12.20;;;;;;;6.59;80.86;96915.19;4878549;29;43730;-75
2024/03/10 06:18:04;;;;;;;16.97;11.43;;;;;;;6.60;80.35;96906.34;4862293;29;43368;-75
2024/03/10 06:26:03;;;;;;;18.77;12.83;;;;;;;6.75;80.65;96902.53;4877211;29;44611;-76
2024/03/10 06:28:32;;;;;;;19.50;12.87;;;;;;;6.80;80.45;96905.63;4877307;29;43188;-76
2024/03/10 06:31:00;;;;;;;20.80;13.87;;;;;;;6.84;81.26;96907.06;4878191;29;40939;-75
2024/03/10 06:33:27;;;;;;;21.63;13.90;;;;;;;6.87;82.12;96910.41;4863055;29;41800;-77
2024/03/10 06:35:55;;;;;;;19.60;13.40;;;;;;;6.93;81.60;96904.66;4879399;29;43026;-76
2024/03/10 06:38:23;;;;;;;19.37;13.33;;;;;;;6.98;81.43;96891.97;4862776;29;41445;-78
2024/03/10 06:40:51;;;;;;;20.00;13.27;;;;;;;7.01;82.95;96875.94;4862886;29;40633;-77
2024/03/10 06:43:18;;;;;;;22.27;15.23;;;;;;;7.08;82.74;96877.13;4878469;29;41705;-78
2024/03/10 06:45:46;;;;;;;20.43;13.80;;;;;;;7.16;81.73;96901.06;4878075;29;41803;-77
2024/03/10 06:48:15;;;;;;;17.40;13.07;;;;;;;7.26;81.05;96904.63;4863267;29;41218;-76
2024/03/10 06:50:43;;;;;;;22.27;13.63;;;;;;;7.35;80.43;96917.03;4878371;29;40158;-76
2024/03/10 06:53:10;;;;;;;18.30;13.53;;;;;;;7.44;80.07;96944.41;4862524;29;41052;-78
2024/03/10 06:55:40;;;;;;;18.37;13.37;;;;;;;7.55;79.17;96954.91;4878036;29;43612;-78
2024/03/10 06:58:07;;;;;;;19.83;13.40;;;;;;;7.64;78.61;96953.34;4878924;29;42260;-74
2024/03/10 07:00:35;;;;;;;19.17;12.37;;;;;;;7.73;78.43;96963.13;4875898;29;40562;-75
2024/03/10 07:03:03;;;;;;;17.70;11.97;;;;;;;7.84;77.57;96968.38;4877539;29;41806;-76
2024/03/10 07:05:30;;;;;;;17.37;11.90;;;;;;;7.83;77.32;96954.34;4877911;29;43003;-75
2024/03/10 07:07:58;;;;;;;17.77;12.23;;;;;;;8.04;76.83;96986.00;4877022;29;42092;-79
2024/03/10 07:10:25;;;;;;;17.97;12.93;;;;;;;8.14;76.58;96979.03;4877853;29;40697;-78
2024/03/10 07:12:55;;;;;;;18.80;12.40;;;;;;;8.27;76.15;96982.34;4861315;29;42825;-76
2024/03/10 07:15:23;;;;;;;18.90;13.57;;;;;;;8.38;75.78;96980.63;4876863;29;43353;-78
2024/03/10 07:17:50;;;;;;;17.37;12.80;;;;;;;8.49;75.54;96972.66;4877950;29;42388;-78
2024/03/10 07:20:18;;;;;;;19.47;13.27;;;;;;;8.55;75.25;96966.84;4878197;29;42167;-77
2024/03/10 07:22:46;;;;;;;19.20;13.17;;;;;;;8.71;74.77;96984.88;4861356;29;40984;-77
2024/03/10 07:25:14;;;;;;;19.97;14.43;;;;;;;8.89;74.15;96978.88;4877676;29;42895;-79
2024/03/10 07:27:43;;;;;;;18.53;13.80;;;;;;;9.13;73.73;96975.94;4861175;29;41961;-80
2024/03/10 07:30:13;;;;;;;19.47;13.73;;;;;;;9.29;72.84;96976.25;4861518;29;40178;-77
2024/03/10 07:32:42;;;;;;;19.63;13.87;;;;;;;9.41;71.70;96976.97;4877987;29;41560;-78
2024/03/10 07:35:12;;;;;;;18.23;13.77;;;;;;;9.65;71.05;96968.69;4877935;29;41837;-77
2024/03/10 07:37:39;;;;;;;20.57;13.67;;;;;;;9.88;70.45;96958.72;4862034;29;42117;-74
2024/03/10 07:40:15;;;;;;;19.47;14.60;;;;;;;10.17;68.91;96975.41;4877726;29;41159;-76
2024/03/10 07:42:43;;;;;;;17.83;13.37;;;;;;;10.41;66.69;96983.81;4876009;29;41969;-79
2024/03/10 07:45:12;;;;;;;20.33;14.53;;;;;;;10.74;65.71;96979.88;4862076;29;41571;-79
2024/03/10 07:47:42;;;;;;;18.17;13.83;;;;;;;11.21;65.18;96981.69;4877604;29;42287;-79
2024/03/10 07:50:11;;;;;;;17.13;13.50;;;;;;;11.28;64.27;96966.84;4877430;29;40192;-77
2024/03/10 07:52:38;;;;;;;16.60;13.00;;;;;;;11.20;63.29;96953.50;4878691;29;42612;-78
2024/03/10 07:55:07;;;;;;;18.17;13.07;;;;;;;11.26;63.35;96955.56;4878760;29;42636;-77
2024/03/10 07:57:34;;;;;;;16.03;12.53;;;;;;;11.22;63.56;96941.78;4876927;29;41632;-76
2024/03/10 08:00:05;;;;;;;18.07;13.43;;;;;;;11.08;62.80;96934.31;4876155;29;39999;-77
2024/03/10 08:02:35;;;;;;;17.87;13.23;;;;;;;11.05;62.85;96945.19;4877682;29;42126;-76
2024/03/10 08:05:02;;;;;;;15.57;11.47;;;;;;;11.03;63.37;96937.41;4877555;29;43118;-79
2024/03/10 08:07:30;;;;;;;17.00;12.63;;;;;;;10.99;63.09;96941.34;4860294;29;42278;-78
2024/03/10 08:09:58;;;;;;;16.97;12.67;;;;;;;10.91;63.00;96946.50;4877727;29;41152;-78
2024/03/10 08:12:26;;;;;;;16.87;12.63;;;;;;;10.90;63.60;96944.81;4875930;29;41912;-77
2024/03/10 08:14:53;;;;;;;18.17;13.07;;;;;;;10.94;63.71;96948.88;4876383;29;43597;-76
2024/03/10 08:17:21;;;;;;;16.47;12.23;;;;;;;10.93;63.40;96957.78;4859149;29;43092;-77
2024/03/10 08:19:50;;;;;;;16.73;12.37;;;;;;;10.99;63.05;96946.63;4875954;29;41758;-79
2024/03/10 08:22:17;;;;;;;17.17;12.47;;;;;;;11.03;62.45;96961.22;4876189;29;42495;-76
2024/03/10 08:24:45;;;;;;;17.33;12.30;;;;;;;11.09;62.45;96963.31;4876109;29;42893;-80
2024/03/10 08:27:13;;;;;;;16.77;12.33;;;;;;;11.18;62.12;96955.47;4877148;29;43206;-79
2024/03/10 08:29:40;;;;;;;18.50;13.33;;;;;;;11.26;61.62;96948.44;4876294;29;39919;-76
2024/03/10 08:32:08;;;;;;;16.43;12.70;;;;;;;11.36;61.89;96943.13;4876430;29;40372;-79
2024/03/10 08:34:35;;;;;;;17.27;12.03;;;;;;;11.44;61.42;96940.56;4877960;29;43758;-78
2024/03/10 08:37:05;;;;;;;18.17;12.17;;;;;;;11.51;61.72;96915.94;4862729;29;20222;-78
2024/03/10 08:39:32;;;;;;;16.77;12.50;;;;;;;11.51;61.18;96904.50;4877104;29;40536;-78
2024/03/10 08:42:00;;;;;;;15.23;11.27;;;;;;;11.55;60.93;96908.53;4861236;29;42536;-78
2024/03/10 08:44:27;;;;;;;15.30;11.50;;;;;;;11.54;60.28;96914.81;4878035;29;43031;-80
2024/03/10 08:46:55;;;;;;;16.10;11.73;;;;;;;11.63;60.59;96897.19;4877957;29;42235;-75
2024/03/10 08:49:23;;;;;;;16.47;12.60;;;;;;;11.61;60.44;96870.00;4877675;29;40152;-78
2024/03/10 08:51:50;;;;;;;15.93;12.23;;;;;;;11.61;59.79;96883.25;4876488;29;42073;-78
2024/03/10 08:54:19;;;;;;;16.30;11.77;;;;;;;11.79;59.82;96900.88;4876414;29;41326;-78
2024/03/10 08:56:48;;;;;;;15.40;11.57;;;;;;;11.82;59.54;96882.00;4876639;29;42441;-77
2024/03/10 08:59:16;;;;;;;16.63;12.60;;;;;;;11.94;58.96;96905.66;4876978;29;41134;-75
2024/03/10 09:01:43;;;;;;;15.07;11.63;;;;;;;12.07;59.11;96911.41;4874858;29;42073;-75
2024/03/10 09:04:11;;;;;;;16.23;11.83;;;;;;;12.09;58.92;96912.94;4875495;29;43564;-78
2024/03/10 09:06:38;;;;;;;15.33;11.83;;;;;;;12.10;59.62;96895.19;4876257;29;42442;-76
2024/03/10 09:09:06;;;;;;;15.80;11.90;;;;;;;12.30;59.44;96904.63;4875055;29;40190;-77
2024/03/10 09:11:35;;;;;;;15.60;11.87;;;;;;;12.39;59.01;96898.38;4874933;29;41936;-78
2024/03/10 09:14:03;;;;;;;15.97;12.37;;;;;;;12.50;58.34;96902.59;4876579;29;42862;-82
2024/03/10 09:16:30;;;;;;;15.77;12.87;;;;;;;12.50;57.40;96924.69;4875358;29;42180;-78
2024/03/10 09:18:57;;;;;;;15.80;12.20;;;;;;;12.46;57.76;96883.53;4875376;29;40267;-76
2024/03/10 09:21:25;;;;;;;14.53;11.93;;;;;;;12.90;57.22;96920.63;4875131;29;41816;-79
2024/03/10 09:23:52;;;;;;;13.73;10.97;;;;;;;13.17;57.20;96909.84;4876033;29;43786;-78
2024/03/10 09:26:20;;;;;;;13.83;11.27;;;;;;;13.41;56.57;96910.94;4874486;29;42350;-77
2024/03/10 09:28:50;;;;;;;13.47;11.23;;;;;;;13.65;55.99;96917.16;4876980;29;40060;-80
2024/03/10 09:31:17;;;;;;;12.80;10.43;;;;;;;13.88;55.42;96916.53;4862826;29;43328;-78
2024/03/10 09:33:45;;;;;;;12.23;9.97;;;;;;;14.12;54.00;96931.69;4880565;29;42859;-77
2024/03/10 09:36:12;;;;;;;11.83;10.17;;;;;;;14.34;52.12;96912.44;4880354;29;41892;-77
2024/03/10 09:38:44;;;;;;;11.63;9.73;;;;;;;14.99;50.93;96928.34;4878971;29;41181;-78
2024/03/10 09:41:12;;;;;;;12.63;9.73;;;;;;;15.63;50.93;96910.47;4863803;29;40410;-79
2024/03/10 09:43:40;;;;;;;11.83;9.93;;;;;;;16.30;49.10;96929.41;4880349;29;42840;-80
2024/03/10 09:46:13;;;;;;;10.80;9.70;;;;;;;16.73;47.25;96954.63;4863373;29;41988;-74
2024/03/10 09:48:42;;;;;;;11.23;9.23;;;;;;;16.98;45.92;96960.56;4877447;29;42029;-81
2024/03/10 09:51:13;;;;;;;11.03;8.93;;;;;;;17.42;45.31;96974.81;4878705;29;43617;-79
2024/03/10 09:53:41;;;;;;;11.30;9.60;;;;;;;18.15;44.44;96968.56;4877334;29;43074;-81
2024/03/10 09:56:09;;;;;;;11.30;9.47;;;;;;;18.25;42.78;96971.75;4862887;29;41624;-76
2024/03/10 09:58:47;;;;;;;10.60;8.90;;;;;;;18.36;43.33;96966.91;4876696;29;41072;-76
2024/03/10 10:01:20;;;;;;;11.40;9.33;;;;;;;18.37;42.03;96968.56;4875457;29;41951;-81
2024/03/10 10:03:52;;;;;;;9.20;8.13;;;;;;;18.49;42.23;96950.97;4874797;29;42794;-80
2024/03/10 10:06:21;;;;;;;10.37;9.23;;;;;;;18.45;41.89;96955.88;4877642;29;43432;-79
2024/03/10 10:08:53;;;;;;;12.10;9.73;;;;;;;18.53;41.79;96946.88;4862710;29;40508;-76
2024/03/10 10:11:23;;;;;;;10.47;9.00;;;;;;;18.55;40.84;96955.53;4877348;29;42768;-76
2024/03/10 10:14:07;;;;;;;9.97;8.93;;;;;;;18.72;41.45;96938.22;4862246;29;41970;-77
2024/03/10 10:16:36;;;;;;;10.77;8.57;;;;;;;19.34;40.65;96934.72;4862166;29;43870;-76
2024/03/10 10:19:05;;;;;;;8.90;7.90;;;;;;;19.21;40.45;96921.22;4861799;29;41079;-80
2024/03/10 10:21:35;;;;;;;9.47;7.80;;;;;;;18.92;40.59;96903.47;4877941;29;42038;-82
2024/03/10 10:24:04;;;;;;;9.83;8.53;;;;;;;18.71;40.35;96912.41;4878872;29;42864;-79
2024/03/10 10:26:31;;;;;;;9.27;8.13;;;;;;;18.52;40.58;96908.53;4862084;29;42335;-77
2024/03/10 10:29:07;;;;;;;9.43;8.40;;;;;;;18.40;40.52;96894.00;4879063;29;39930;-79
2024/03/10 10:31:38;;;;;;;9.33;8.37;;;;;;;18.35;40.70;96890.22;4877361;29;42049;-81
2024/03/10 10:34:06;;;;;;;8.67;7.87;;;;;;;18.54;41.21;96890.41;4876738;29;43605;-79
2024/03/10 10:36:34;;;;;;;9.77;8.00;;;;;;;18.34;40.73;96877.84;4877655;29;41576;-84
2024/03/10 10:39:08;;;;;;;8.93;8.03;;;;;;;18.65;40.76;96897.13;4861754;29;41962;-82
2024/03/10 10:41:36;;;;;;;9.63;8.20;;;;;;;18.81;39.88;96912.91;4878027;29;41878;-86
2024/03/10 10:44:06;;;;;;;9.10;7.80;;;;;;;19.59;39.99;96927.88;4878046;29;42908;-79
2024/03/10 10:46:36;;;;;;;9.27;7.37;;;;;;;20.78;38.91;96949.69;4879014;29;42047;-83
2024/03/10 10:49:04;;;;;;;7.60;6.47;;;;;;;21.67;36.96;96970.75;4862489;29;41458;-82
2024/03/10 10:51:33;;;;;;;7.80;6.97;;;;;;;22.30;35.09;96977.16;4879140;29;41838;-81
2024/03/10 10:54:09;;;;;;;7.70;6.47;;;;;;;22.79;34.30;96970.25;4879056;29;42976;-77
2024/03/10 10:56:36;;;;;;;7.90;6.90;;;;;;;23.03;32.97;96972.13;4877631;29;42735;-80
2024/03/10 10:59:04;;;;;;;7.60;6.73;;;;;;;22.91;32.43;96984.69;4874825;29;40744;-80
2024/03/10 11:01:31;;;;;;;6.70;6.00;;;;;;;22.57;32.69;96973.28;4875891;29;40927;-76
2024/03/10 11:04:05;;;;;;;6.60;5.90;;;;;;;22.18;33.16;96984.28;4876612;29;43220;-77
2024/03/10 11:06:33;;;;;;;6.60;5.90;;;;;;;21.80;33.36;96971.53;4875772;29;43482;-80
2024/03/10 11:09:13;;;;;;;8.03;6.37;;;;;;;21.50;33.83;96971.22;4877187;29;38933;-82
2024/03/10 11:11:45;;;;;;;7.33;6.53;;;;;;;21.22;34.79;96950.97;4877623;29;41619;-78
2024/03/10 11:14:15;;;;;;;6.30;5.70;;;;;;;20.96;34.69;96949.09;4861392;29;43866;-79
2024/03/10 11:16:44;;;;;;;6.80;5.80;;;;;;;20.70;35.14;96942.66;4876890;29;41238;-80
2024/03/10 11:19:27;;;;;;;7.33;6.50;;;;;;;20.54;35.80;96942.22;4878053;29;39592;-81
2024/03/10 11:21:57;;;;;;;7.00;6.00;;;;;;;20.32;35.63;96923.56;4876381;29;41813;-78
2024/03/10 11:24:26;;;;;;;6.73;6.00;;;;;;;20.12;35.70;96917.31;4878037;29;45097;-81
2024/03/10 11:27:17;;;;;;;6.80;5.80;;;;;;;19.94;36.67;96909.00;4877625;29;42923;-75
2024/03/10 11:29:45;;;;;;;6.40;5.73;;;;;;;19.76;36.71;96901.50;4861382;29;39349;-80
2024/03/10 11:32:43;;;;;;;6.93;6.20;;;;;;;19.73;37.19;96908.09;4861766;29;43638;-79
2024/03/10 11:35:14;;;;;;;7.40;6.00;;;;;;;19.73;37.67;96901.91;4842308;29;41808;-78
2024/03/10 11:37:41;;;;;;;7.10;5.50;;;;;;;19.64;37.50;96882.47;4873265;29;42399;-78
2024/03/10 11:40:15;;;;;;;6.47;5.80;;;;;;;19.75;37.75;96886.41;4861602;29;38988;-80
2024/03/10 11:42:43;;;;;;;6.67;5.97;;;;;;;19.79;37.93;96868.03;4874853;29;41992;-82
2024/03/10 11:45:12;;;;;;;6.93;6.20;;;;;;;19.80;37.47;96864.31;4861218;29;42874;-79
2024/03/10 11:47:39;;;;;;;8.10;6.80;;;;;;;19.71;37.58;96861.81;4876412;29;40591;-76
2024/03/10 11:50:08;;;;;;;7.40;6.27;;;;;;;19.63;38.15;96853.94;4876594;29;39980;-75
2024/03/10 11:52:37;;;;;;;7.80;7.00;;;;;;;19.62;37.75;96857.66;4859696;29;44407;-74
2024/03/10 11:55:11;;;;;;;7.63;6.83;;;;;;;19.72;38.18;96850.06;4860822;29;41811;-77
2024/03/10 11:57:39;;;;;;;7.57;6.50;;;;;;;19.77;38.01;96854.00;4876332;29;41800;-79